createdAt,value
2022-07-25T00:00:02.036Z,7.60
2022-07-25T00:02:58.138Z,7.80
2022-07-25T00:06:00.342Z,7.80
2022-07-25T00:09:37.045Z,8.00
2022-07-25T00:12:37.466Z,8.10
2022-07-25T00:27:41.221Z,7.50
2022-07-25T00:30:34.508Z,7.70
2022-07-25T00:36:55.697Z,7.50
2022-07-25T00:39:26.820Z,7.40
2022-07-25T00:42:13.232Z,8.00
2022-07-25T00:45:21.346Z,7.20
2022-07-25T00:48:35.308Z,7.30
2022-07-25T00:54:43.157Z,7.00
2022-07-25T00:57:47.964Z,6.90
2022-07-25T01:00:16.933Z,7.20
2022-07-25T01:03:00.473Z,7.50
2022-07-25T01:05:53.787Z,7.10
2022-07-25T01:08:40.578Z,7.70
2022-07-25T01:11:46.204Z,6.90
2022-07-25T01:14:24.338Z,7.40
2022-07-25T01:17:01.278Z,7.60
2022-07-25T01:19:32.567Z,7.90
2022-07-25T01:22:09.243Z,7.80
2022-07-25T01:24:40.418Z,7.50
2022-07-25T01:27:17.468Z,7.40
2022-07-25T01:29:48.726Z,7.70
2022-07-25T01:32:22.578Z,8.00
2022-07-25T01:35:29.836Z,8.20
2022-07-25T01:38:57.494Z,7.60
2022-07-25T01:41:52.384Z,7.50
2022-07-25T01:44:26.387Z,8.20
2022-07-25T01:56:24.710Z,7.30
2022-07-25T01:58:55.805Z,8.00
2022-07-25T02:01:25.002Z,8.70
2022-07-25T02:03:56.587Z,7.70
2022-07-25T02:06:27.734Z,8.30
2022-07-25T02:08:58.900Z,7.80
2022-07-25T02:11:30.749Z,7.80
2022-07-25T02:14:02.515Z,8.80
2022-07-25T02:16:33.926Z,8.20
2022-07-25T02:19:05.106Z,8.20
2022-07-25T02:21:36.115Z,7.90
2022-07-25T02:24:08.645Z,8.10
2022-07-25T02:26:40.321Z,8.10
2022-07-25T02:29:11.270Z,7.70
2022-07-25T02:31:44.156Z,7.80
2022-07-25T02:34:15.001Z,8.10
2022-07-25T02:36:47.336Z,7.80
2022-07-25T02:39:18.374Z,8.20
2022-07-25T02:41:49.309Z,8.20
2022-07-25T02:44:20.507Z,8.20
2022-07-25T02:46:50.028Z,8.30
2022-07-25T02:49:20.891Z,8.10
2022-07-25T02:51:51.496Z,8.40
2022-07-25T02:54:22.260Z,8.50
2022-07-25T02:56:53.164Z,8.70
2022-07-25T02:59:24.139Z,8.00
2022-07-25T03:01:55.426Z,8.30
2022-07-25T03:04:26.455Z,8.30
2022-07-25T03:06:57.056Z,8.50
2022-07-25T03:09:28.035Z,9.00
2022-07-25T03:11:59.360Z,8.70
2022-07-25T03:14:30.371Z,8.40
2022-07-25T03:17:01.706Z,8.50
2022-07-25T03:19:32.518Z,7.80
2022-07-25T03:22:03.385Z,7.70
2022-07-25T03:24:34.503Z,7.90
2022-07-25T03:27:05.313Z,7.50
2022-07-25T03:29:36.422Z,8.20
2022-07-25T03:32:08.571Z,8.00
2022-07-25T03:34:39.518Z,7.60
2022-07-25T03:37:10.255Z,8.00
2022-07-25T03:39:41.442Z,8.30
2022-07-25T03:42:12.454Z,9.30
2022-07-25T03:44:43.372Z,8.70
2022-07-25T03:47:20.331Z,8.90
2022-07-25T03:49:52.375Z,9.10
2022-07-25T03:52:23.247Z,8.90
2022-07-25T03:54:54.209Z,9.10
2022-07-25T03:57:24.943Z,9.40
2022-07-25T03:59:54.253Z,8.70
2022-07-25T04:02:22.701Z,8.70
2022-07-25T04:04:51.921Z,8.90
2022-07-25T04:07:21.555Z,8.70
2022-07-25T04:09:51.324Z,9.40
2022-07-25T04:12:19.997Z,8.90
2022-07-25T04:14:50.866Z,9.90
2022-07-25T04:17:20.859Z,9.10
2022-07-25T04:19:50.709Z,8.60
2022-07-25T04:22:22.539Z,8.40
2022-07-25T04:25:09.530Z,9.20
2022-07-25T04:27:44.663Z,8.20
2022-07-25T04:30:13.484Z,8.10
2022-07-25T04:32:52.827Z,9.10
2022-07-25T04:35:21.047Z,8.20
2022-07-25T04:37:49.812Z,8.10
2022-07-25T04:40:18.037Z,8.30
2022-07-25T04:42:46.363Z,8.00
2022-07-25T04:45:17.615Z,7.90
2022-07-25T04:47:49.942Z,7.60
2022-07-25T04:50:24.746Z,8.00
2022-07-25T04:52:53.417Z,8.00
2022-07-25T04:57:50.830Z,7.70
2022-07-25T05:00:18.977Z,7.40
2022-07-25T05:05:21.629Z,7.00
2022-07-25T05:07:58.646Z,7.90
2022-07-25T05:10:29.722Z,8.10
2022-07-25T05:12:58.733Z,8.00
2022-07-25T05:15:28.380Z,8.20
2022-07-25T05:17:56.572Z,8.00
2022-07-25T05:20:26.237Z,8.20
2022-07-25T05:22:55.574Z,8.20
2022-07-25T05:25:26.921Z,7.70
2022-07-25T05:27:58.863Z,9.20
2022-07-25T05:30:30.285Z,8.00
2022-07-25T05:33:18.498Z,7.80
2022-07-25T05:35:49.384Z,7.80
2022-07-25T05:38:19.121Z,8.00
2022-07-25T05:40:52.369Z,7.70
2022-07-25T05:43:23.447Z,7.50
2022-07-25T05:45:53.477Z,7.80
2022-07-25T05:48:24.504Z,7.10
2022-07-25T05:50:54.371Z,7.30
2022-07-25T05:53:25.994Z,7.70
2022-07-25T05:55:56.843Z,7.70
2022-07-25T05:58:29.625Z,7.60
2022-07-25T06:01:01.200Z,7.30
2022-07-25T06:03:34.249Z,7.20
2022-07-25T06:06:05.793Z,6.50
2022-07-25T06:08:37.922Z,6.40
2022-07-25T06:11:09.071Z,6.40
2022-07-25T06:13:40.625Z,6.30
2022-07-25T06:16:11.477Z,6.80
2022-07-25T06:18:42.499Z,6.30
2022-07-25T06:21:13.535Z,6.50
2022-07-25T06:23:44.406Z,6.20
2022-07-25T06:26:15.582Z,7.00
2022-07-25T06:28:46.518Z,6.60
2022-07-25T06:31:18.163Z,6.10
2022-07-25T06:33:49.132Z,6.50
2022-07-25T06:36:20.109Z,6.30
2022-07-25T06:38:51.124Z,7.10
2022-07-25T06:41:23.356Z,5.90
2022-07-25T06:43:56.179Z,5.80
2022-07-25T06:46:30.028Z,6.50
2022-07-25T06:49:01.326Z,6.30
2022-07-25T06:51:32.279Z,6.20
2022-07-25T06:54:04.296Z,6.40
2022-07-25T06:56:35.719Z,6.20
2022-07-25T06:59:07.102Z,6.00
2022-07-25T07:01:38.208Z,5.80
2022-07-25T07:04:30.603Z,6.50
2022-07-25T07:07:01.700Z,6.90
2022-07-25T07:09:32.716Z,6.50
2022-07-25T07:12:04.252Z,6.40
2022-07-25T07:14:35.245Z,6.20
2022-07-25T07:17:06.093Z,7.00
2022-07-25T07:19:44.049Z,6.30
2022-07-25T07:22:15.288Z,6.60
2022-07-25T07:24:48.241Z,6.40
2022-07-25T07:27:20.758Z,6.70
2022-07-25T07:29:51.975Z,7.20
2022-07-25T07:32:23.093Z,6.40
2022-07-25T07:34:54.491Z,6.60
2022-07-25T07:37:26.323Z,7.30
2022-07-25T07:40:25.621Z,6.70
2022-07-25T07:43:01.476Z,6.90
2022-07-25T07:45:33.679Z,7.10
2022-07-25T07:48:09.171Z,6.50
2022-07-25T07:50:50.941Z,6.70
2022-07-25T07:53:22.958Z,6.60
2022-07-25T07:55:55.548Z,5.80
2022-07-25T07:58:26.422Z,6.90
2022-07-25T08:01:18.744Z,6.30
2022-07-25T08:03:49.901Z,6.30
2022-07-25T08:06:21.600Z,6.30
2022-07-25T08:08:54.957Z,6.90
2022-07-25T08:11:26.765Z,6.40
2022-07-25T08:13:58.041Z,6.30
2022-07-25T08:16:31.163Z,6.70
2022-07-25T08:19:23.927Z,6.10
2022-07-25T08:21:55.522Z,5.50
2022-07-25T08:24:52.105Z,5.80
